Cielo Di Vaiano — D5AQ2 — position and weather

sailwx.info

Track history (hours):
 
Tides and Currents Weather Stations Pressure Air Temp Water Temp Dewpoint Dewpoint Depression Visibility Wind Speed Wind Dir Waves Ship Positions

Cielo Di Vaiano

Last reported at 2017-Mar-22 21:33 UTC. Time now 2017-Mar-22 22:19 UTC.
Position S 36°51' E 174°47'.

Length 183 m; draft 7.2 m.

Type: Cargo ship. MMSI: 636015421.

Date/timePositionNaut miles runAvg speedWind from/ knotsBaromVisibWave heightAir tempDewpointWater temp
2017-Mar-22 21:33S 36°51' E 174°47'0 0.0
2017-Mar-22 20:33S 36°51' E 174°47'0 0.0
2017-Mar-22 19:33S 36°51' E 174°47'0 0.0
2017-Mar-22 18:33S 36°51' E 174°47'0 0.0
2017-Mar-22 17:33S 36°51' E 174°47'0 0.0
2017-Mar-22 16:33S 36°51' E 174°47'0 0.0
2017-Mar-22 15:33S 36°51' E 174°47'0 0.0
2017-Mar-22 14:33S 36°51' E 174°47'0 0.0
2017-Mar-22 13:33S 36°51' E 174°47'0 0.0
2017-Mar-22 12:33S 36°51' E 174°47'0 0.0
2017-Mar-22 11:33S 36°51' E 174°47'0 0.0
2017-Mar-22 10:33S 36°51' E 174°47'0 0.0
2017-Mar-22 09:33S 36°51' E 174°47'0 0.0
2017-Mar-22 08:33S 36°51' E 174°47'0 0.0
2017-Mar-22 07:33S 36°51' E 174°47'0 0.0
2017-Mar-22 06:33S 36°51' E 174°47'0 0.0
2017-Mar-22 05:33S 36°51' E 174°47'0 0.0
2017-Mar-22 04:33S 36°51' E 174°47'0 0.0
2017-Mar-22 03:33S 36°51' E 174°47'0 0.0
2017-Mar-22 02:33S 36°51' E 174°47'0 0.0
2017-Mar-22 01:33S 36°51' E 174°47'0 0.0
2017-Mar-22 00:33S 36°51' E 174°47'0 0.0
2017-Mar-21 23:33S 36°51' E 174°47'0 0.0
2017-Mar-21 22:33S 36°51' E 174°47'0 0.0
2017-Mar-21 21:33S 36°51' E 174°47'0 0.0
2017-Mar-21 20:33S 36°51' E 174°47'0 0.4
2017-Mar-21 19:33S 36°50' E 174°47'5 5.4
2017-Mar-21 18:33S 36°45' E 174°49'7 7.1
2017-Mar-21 17:33S 36°40' E 174°55'7 7.4
2017-Mar-21 16:33S 36°33' E 174°58'8 7.5
2017-Mar-21 15:33S 36°25' E 174°58'7 7.4
2017-Mar-21 14:33S 36°18' E 174°58'  
Track history (hours):
 
Tides and Currents Weather Stations Pressure Air Temp Water Temp Dewpoint Dewpoint Depression Visibility Wind Speed Wind Dir Waves Ship Positions

Cielo Di Vaiano

Last reported at 2017-Mar-22 21:33 UTC. Time now 2017-Mar-22 22:19 UTC.
Position S 36°51' E 174°47'.

Length 183 m; draft 7.2 m.

Type: Cargo ship. MMSI: 636015421.

Date/timePositionNaut miles runAvg speedWind from/ knotsBaromVisibWave heightAir tempDewpointWater temp
2017-Mar-22 21:33S 36°51' E 174°47'0 0.0
2017-Mar-22 20:33S 36°51' E 174°47'0 0.0
2017-Mar-22 19:33S 36°51' E 174°47'0 0.0
2017-Mar-22 18:33S 36°51' E 174°47'0 0.0
2017-Mar-22 17:33S 36°51' E 174°47'0 0.0
2017-Mar-22 16:33S 36°51' E 174°47'0 0.0
2017-Mar-22 15:33S 36°51' E 174°47'0 0.0
2017-Mar-22 14:33S 36°51' E 174°47'0 0.0
2017-Mar-22 13:33S 36°51' E 174°47'0 0.0
2017-Mar-22 12:33S 36°51' E 174°47'0 0.0
2017-Mar-22 11:33S 36°51' E 174°47'0 0.0
2017-Mar-22 10:33S 36°51' E 174°47'0 0.0
2017-Mar-22 09:33S 36°51' E 174°47'0 0.0
2017-Mar-22 08:33S 36°51' E 174°47'0 0.0
2017-Mar-22 07:33S 36°51' E 174°47'0 0.0
2017-Mar-22 06:33S 36°51' E 174°47'0 0.0
2017-Mar-22 05:33S 36°51' E 174°47'0 0.0
2017-Mar-22 04:33S 36°51' E 174°47'0 0.0
2017-Mar-22 03:33S 36°51' E 174°47'0 0.0
2017-Mar-22 02:33S 36°51' E 174°47'0 0.0
2017-Mar-22 01:33S 36°51' E 174°47'0 0.0
2017-Mar-22 00:33S 36°51' E 174°47'0 0.0
2017-Mar-21 23:33S 36°51' E 174°47'0 0.0
2017-Mar-21 22:33S 36°51' E 174°47'0 0.0
2017-Mar-21 21:33S 36°51' E 174°47'0 0.0
2017-Mar-21 20:33S 36°51' E 174°47'0 0.4
2017-Mar-21 19:33S 36°50' E 174°47'5 5.4
2017-Mar-21 18:33S 36°45' E 174°49'7 7.1
2017-Mar-21 17:33S 36°40' E 174°55'7 7.4
2017-Mar-21 16:33S 36°33' E 174°58'8 7.5
2017-Mar-21 15:33S 36°25' E 174°58'7 7.4
2017-Mar-21 14:33S 36°18' E 174°58'  

Dump ship's entire track history